sensor_id;sensor_type;location;lat;lon;timestamp;pressure;altitude;pressure_sealevel;temperature;humidity
6224;BME280;3145;42.726;23.342;2023-03-03T00:01:14;95434.00;;;3.83;nan
6224;BME280;3145;42.726;23.342;2023-03-03T00:03:41;95408.16;;;3.70;nan
6224;BME280;3145;42.726;23.342;2023-03-03T00:06:09;95417.78;;;3.79;nan
6224;BME280;3145;42.726;23.342;2023-03-03T00:08:38;95420.25;;;3.81;nan
6224;BME280;3145;42.726;23.342;2023-03-03T00:11:05;95426.28;;;3.81;nan
6224;BME280;3145;42.726;23.342;2023-03-03T00:13:39;95399.09;;;3.74;nan
6224;BME280;3145;42.726;23.342;2023-03-03T00:16:20;95424.13;;;3.86;nan
6224;BME280;3145;42.726;23.342;2023-03-03T00:18:48;95415.84;;;3.81;nan
6224;BME280;3145;42.726;23.342;2023-03-03T00:21:23;95376.22;;;3.57;nan
6224;BME280;3145;42.726;23.342;2023-03-03T00:24:01;95417.50;;;3.82;nan
6224;BME280;3145;42.726;23.342;2023-03-03T00:26:30;95425.88;;;3.86;nan
6224;BME280;3145;42.726;23.342;2023-03-03T00:29:01;95381.59;;;3.65;nan
6224;BME280;3145;42.726;23.342;2023-03-03T00:31:32;95406.78;;;3.85;nan
6224;BME280;3145;42.726;23.342;2023-03-03T00:34:15;95406.78;;;3.85;nan
6224;BME280;3145;42.726;23.342;2023-03-03T00:36:47;95406.22;;;3.82;nan
6224;BME280;3145;42.726;23.342;2023-03-03T00:39:26;95404.44;;;3.82;nan
6224;BME280;3145;42.726;23.342;2023-03-03T00:41:55;95405.13;;;3.84;nan
6224;BME280;3145;42.726;23.342;2023-03-03T00:44:41;95393.88;;;3.84;nan
6224;BME280;3145;42.726;23.342;2023-03-03T00:47:27;95398.78;;;3.77;nan
6224;BME280;3145;42.726;23.342;2023-03-03T00:52:44;95364.69;;;3.69;nan
6224;BME280;3145;42.726;23.342;2023-03-03T00:55:18;95365.38;;;3.71;nan
6224;BME280;3145;42.726;23.342;2023-03-03T00:57:45;95376.25;;;3.76;nan
6224;BME280;3145;42.726;23.342;2023-03-03T01:00:13;95376.25;;;3.76;nan
6224;BME280;3145;42.726;23.342;2023-03-03T01:02:40;95322.09;;;3.59;nan
6224;BME280;3145;42.726;23.342;2023-03-03T01:05:12;95364.28;;;3.83;nan
6224;BME280;3145;42.726;23.342;2023-03-03T01:07:39;95361.94;;;3.71;nan
6224;BME280;3145;42.726;23.342;2023-03-03T01:10:06;95210.50;;;2.85;nan
6224;BME280;3145;42.726;23.342;2023-03-03T01:12:35;95352.06;;;3.74;nan
6224;BME280;3145;42.726;23.342;2023-03-03T01:15:03;95357.16;;;3.76;nan
6224;BME280;3145;42.726;23.342;2023-03-03T01:17:30;95362.06;;;3.69;nan
6224;BME280;3145;42.726;23.342;2023-03-03T01:19:57;95355.06;;;3.70;nan
6224;BME280;3145;42.726;23.342;2023-03-03T01:22:24;95352.06;;;3.74;nan
6224;BME280;3145;42.726;23.342;2023-03-03T01:24:50;95350.38;;;3.73;nan
6224;BME280;3145;42.726;23.342;2023-03-03T01:27:17;95344.09;;;3.66;nan
6224;BME280;3145;42.726;23.342;2023-03-03T01:29:45;95337.50;;;3.62;nan
6224;BME280;3145;42.726;23.342;2023-03-03T01:32:12;95338.44;;;3.61;nan
6224;BME280;3145;42.726;23.342;2023-03-03T01:34:38;95350.69;;;3.80;nan
6224;BME280;3145;42.726;23.342;2023-03-03T01:37:05;95349.84;;;3.70;nan
6224;BME280;3145;42.726;23.342;2023-03-03T01:39:32;95321.81;;;3.53;nan
6224;BME280;3145;42.726;23.342;2023-03-03T01:41:58;95322.91;;;3.50;nan
6224;BME280;3145;42.726;23.342;2023-03-03T01:44:25;95350.13;;;3.76;nan
6224;BME280;3145;42.726;23.342;2023-03-03T01:46:57;95343.13;;;3.67;nan
6224;BME280;3145;42.726;23.342;2023-03-03T01:49:28;95315.22;;;3.58;nan
6224;BME280;3145;42.726;23.342;2023-03-03T01:51:59;95335.81;;;3.61;nan
6224;BME280;3145;42.726;23.342;2023-03-03T01:54:30;95328.69;;;3.63;nan
6224;BME280;3145;42.726;23.342;2023-03-03T01:57:02;95307.53;;;3.47;nan
6224;BME280;3145;42.726;23.342;2023-03-03T01:59:33;95343.78;;;3.79;nan
6224;BME280;3145;42.726;23.342;2023-03-03T02:02:03;95337.63;;;3.70;nan
6224;BME280;3145;42.726;23.342;2023-03-03T02:04:30;95337.75;;;3.78;nan
6224;BME280;3145;42.726;23.342;2023-03-03T02:07:00;95339.94;;;3.73;nan
6224;BME280;3145;42.726;23.342;2023-03-03T02:09:33;95331.69;;;3.59;nan
6224;BME280;3145;42.726;23.342;2023-03-03T02:12:07;95335.28;;;3.67;nan
6224;BME280;3145;42.726;23.342;2023-03-03T02:14:34;95318.38;;;3.52;nan
6224;BME280;3145;42.726;23.342;2023-03-03T02:17:02;95331.44;;;3.62;nan
6224;BME280;3145;42.726;23.342;2023-03-03T02:19:35;95329.78;;;3.61;nan
6224;BME280;3145;42.726;23.342;2023-03-03T02:22:04;95330.47;;;3.63;nan
6224;BME280;3145;42.726;23.342;2023-03-03T02:24:34;95322.63;;;3.63;nan
6224;BME280;3145;42.726;23.342;2023-03-03T02:27:06;95344.09;;;3.76;nan
6224;BME280;3145;42.726;23.342;2023-03-03T02:29:33;95336.66;;;3.62;nan
6224;BME280;3145;42.726;23.342;2023-03-03T02:31:59;95332.91;;;3.45;nan
6224;BME280;3145;42.726;23.342;2023-03-03T02:34:26;95324.31;;;3.64;nan
6224;BME280;3145;42.726;23.342;2023-03-03T02:36:53;95334.88;;;3.62;nan
6224;BME280;3145;42.726;23.342;2023-03-03T02:39:21;95333.91;;;3.63;nan
6224;BME280;3145;42.726;23.342;2023-03-03T02:41:51;95336.91;;;3.59;nan
6224;BME280;3145;42.726;23.342;2023-03-03T02:44:23;95327.84;;;3.53;nan
6224;BME280;3145;42.726;23.342;2023-03-03T02:46:52;95329.66;;;3.62;nan
6224;BME280;3145;42.726;23.342;2023-03-03T02:49:21;95331.69;;;3.59;nan
6224;BME280;3145;42.726;23.342;2023-03-03T02:51:48;95301.47;;;3.47;nan
6224;BME280;3145;42.726;23.342;2023-03-03T02:54:16;95329.78;;;3.61;nan
6224;BME280;3145;42.726;23.342;2023-03-03T02:56:43;95335.16;;;3.59;nan
6224;BME280;3145;42.726;23.342;2023-03-03T02:59:10;95317.69;;;3.50;nan
6224;BME280;3145;42.726;23.342;2023-03-03T03:01:38;95330.88;;;3.58;nan
6224;BME280;3145;42.726;23.342;2023-03-03T03:04:06;95316.47;;;3.54;nan
6224;BME280;3145;42.726;23.342;2023-03-03T03:06:34;95297.06;;;3.38;nan
6224;BME280;3145;42.726;23.342;2023-03-03T03:09:00;95322.63;;;3.63;nan
6224;BME280;3145;42.726;23.342;2023-03-03T03:11:27;95331.16;;;3.55;nan
6224;BME280;3145;42.726;23.342;2023-03-03T03:13:54;95312.75;;;3.47;nan
6224;BME280;3145;42.726;23.342;2023-03-03T03:16:21;95323.72;;;3.60;nan
6224;BME280;3145;42.726;23.342;2023-03-03T03:18:49;95312.75;;;3.66;nan
6224;BME280;3145;42.726;23.342;2023-03-03T03:21:16;95320.72;;;3.65;nan
6224;BME280;3145;42.726;23.342;2023-03-03T03:23:43;95320.00;;;3.63;nan
6224;BME280;3145;42.726;23.342;2023-03-03T03:26:10;95325.66;;;3.58;nan
6224;BME280;3145;42.726;23.342;2023-03-03T03:28:37;95322.34;;;3.56;nan
6224;BME280;3145;42.726;23.342;2023-03-03T03:31:05;95239.09;;;3.15;nan
6224;BME280;3145;42.726;23.342;2023-03-03T03:33:32;95316.28;;;3.65;nan
6224;BME280;3145;42.726;23.342;2023-03-03T03:36:01;95313.00;;;3.63;nan
6224;BME280;3145;42.726;23.342;2023-03-03T03:38:29;95245.69;;;3.19;nan
6224;BME280;3145;42.726;23.342;2023-03-03T03:40:56;95305.03;;;3.65;nan
6224;BME280;3145;42.726;23.342;2023-03-03T03:43:24;95282.22;;;3.57;nan
6224;BME280;3145;42.726;23.342;2023-03-03T03:45:51;95301.59;;;3.74;nan
6224;BME280;3145;42.726;23.342;2023-03-03T03:48:18;95300.91;;;3.72;nan
6224;BME280;3145;42.726;23.342;2023-03-03T03:50:45;95301.88;;;3.71;nan
6224;BME280;3145;42.726;23.342;2023-03-03T03:53:14;95297.22;;;3.74;nan
6224;BME280;3145;42.726;23.342;2023-03-03T03:55:40;95292.91;;;3.73;nan
6224;BME280;3145;42.726;23.342;2023-03-03T03:58:07;95296.63;;;3.61;nan
6224;BME280;3145;42.726;23.342;2023-03-03T04:00:34;95293.22;;;3.61;nan
6224;BME280;3145;42.726;23.342;2023-03-03T04:03:01;95303.94;;;3.67;nan
6224;BME280;3145;42.726;23.342;2023-03-03T04:05:27;95295.69;;;3.62;nan
6224;BME280;3145;42.726;23.342;2023-03-03T04:07:54;95297.59;;;3.70;nan
6224;BME280;3145;42.726;23.342;2023-03-03T04:10:22;95291.16;;;3.64;nan
6224;BME280;3145;42.726;23.342;2023-03-03T04:12:49;95292.13;;;3.63;nan
6224;BME280;3145;42.726;23.342;2023-03-03T04:15:15;95292.53;;;3.68;nan
6224;BME280;3145;42.726;23.342;2023-03-03T04:17:43;95267.66;;;3.55;nan
6224;BME280;3145;42.726;23.342;2023-03-03T04:20:12;95294.59;;;3.74;nan
6224;BME280;3145;42.726;23.342;2023-03-03T04:22:39;95296.78;;;3.69;nan
6224;BME280;3145;42.726;23.342;2023-03-03T04:25:07;95285.53;;;3.50;nan
6224;BME280;3145;42.726;23.342;2023-03-03T04:27:36;95267.78;;;3.53;nan
6224;BME280;3145;42.726;23.342;2023-03-03T04:30:04;95264.09;;;3.46;nan
6224;BME280;3145;42.726;23.342;2023-03-03T04:32:31;95294.16;;;3.69;nan
6224;BME280;3145;42.726;23.342;2023-03-03T04:34:59;95236.06;;;3.39;nan
6224;BME280;3145;42.726;23.342;2023-03-03T04:37:26;95276.19;;;3.57;nan
6224;BME280;3145;42.726;23.342;2023-03-03T04:39:53;95287.88;;;3.62;nan
6224;BME280;3145;42.726;23.342;2023-03-03T04:42:20;95288.28;;;3.67;nan
6224;BME280;3145;42.726;23.342;2023-03-03T04:44:48;95283.31;;;3.64;nan
6224;BME280;3145;42.726;23.342;2023-03-03T04:47:15;95282.50;;;3.54;nan
6224;BME280;3145;42.726;23.342;2023-03-03T04:49:41;95250.63;;;3.41;nan
6224;BME280;3145;42.726;23.342;2023-03-03T04:52:08;95262.44;;;3.45;nan
6224;BME280;3145;42.726;23.342;2023-03-03T04:54:35;95287.72;;;3.64;nan
6224;BME280;3145;42.726;23.342;2023-03-03T04:57:02;95260.25;;;3.50;nan
6224;BME280;3145;42.726;23.342;2023-03-03T04:59:28;95254.19;;;3.40;nan
6224;BME280;3145;42.726;23.342;2023-03-03T05:01:57;95254.75;;;3.44;nan
6224;BME280;3145;42.726;23.342;2023-03-03T05:04:23;95291.28;;;3.72;nan
6224;BME280;3145;42.726;23.342;2023-03-03T05:06:50;95299.25;;;3.61;nan
6224;BME280;3145;42.726;23.342;2023-03-03T05:09:17;95304.91;;;3.66;nan
6224;BME280;3145;42.726;23.342;2023-03-03T05:11:43;95293.63;;;3.56;nan
6224;BME280;3145;42.726;23.342;2023-03-03T05:14:10;95297.06;;;3.57;nan
6224;BME280;3145;42.726;23.342;2023-03-03T05:16:37;95302.56;;;3.63;nan
6224;BME280;3145;42.726;23.342;2023-03-03T05:19:05;95297.22;;;3.55;nan
6224;BME280;3145;42.726;23.342;2023-03-03T05:21:31;95298.97;;;3.64;nan
6224;BME280;3145;42.726;23.342;2023-03-03T05:23:58;95297.75;;;3.68;nan
6224;BME280;3145;42.726;23.342;2023-03-03T05:26:25;95199.53;;;3.10;nan
6224;BME280;3145;42.726;23.342;2023-03-03T05:28:51;95194.88;;;3.04;nan
6224;BME280;3145;42.726;23.342;2023-03-03T05:31:18;95297.06;;;3.66;nan
6224;BME280;3145;42.726;23.342;2023-03-03T05:33:45;95274.81;;;3.62;nan
6224;BME280;3145;42.726;23.342;2023-03-03T05:36:13;95290.75;;;3.69;nan
6224;BME280;3145;42.726;23.342;2023-03-03T05:38:39;95257.22;;;3.45;nan
6224;BME280;3145;42.726;23.342;2023-03-03T05:41:06;95305.56;;;3.78;nan
6224;BME280;3145;42.726;23.342;2023-03-03T05:43:33;95292.38;;;3.60;nan
6224;BME280;3145;42.726;23.342;2023-03-03T05:46:00;95288.00;;;3.70;nan
6224;BME280;3145;42.726;23.342;2023-03-03T05:48:26;95307.78;;;3.82;nan
6224;BME280;3145;42.726;23.342;2023-03-03T05:50:53;95316.03;;;3.87;nan
6224;BME280;3145;42.726;23.342;2023-03-03T05:53:24;95285.91;;;3.74;nan
6224;BME280;3145;42.726;23.342;2023-03-03T05:55:51;95319.16;;;3.81;nan
6224;BME280;3145;42.726;23.342;2023-03-03T05:58:17;95279.72;;;3.65;nan
6224;BME280;3145;42.726;23.342;2023-03-03T06:00:44;95313.66;;;3.94;nan
6224;BME280;3145;42.726;23.342;2023-03-03T06:03:11;95283.84;;;3.77;nan
6224;BME280;3145;42.726;23.342;2023-03-03T06:05:38;95314.34;;;4.05;nan
6224;BME280;3145;42.726;23.342;2023-03-03T06:08:04;95308.28;;;4.05;nan
6224;BME280;3145;42.726;23.342;2023-03-03T06:10:32;95308.28;;;4.14;nan
6224;BME280;3145;42.726;23.342;2023-03-03T06:12:59;95315.28;;;4.04;nan
6224;BME280;3145;42.726;23.342;2023-03-03T06:15:26;95316.00;;;4.06;nan
6224;BME280;3145;42.726;23.342;2023-03-03T06:17:53;95315.72;;;4.09;nan
6224;BME280;3145;42.726;23.342;2023-03-03T06:20:19;95317.63;;;4.17;nan
6224;BME280;3145;42.726;23.342;2023-03-03T06:22:46;95324.22;;;4.11;nan
6224;BME280;3145;42.726;23.342;2023-03-03T06:25:13;95283.41;;;3.91;nan
6224;BME280;3145;42.726;23.342;2023-03-03T06:27:41;95316.91;;;4.24;nan
6224;BME280;3145;42.726;23.342;2023-03-03T06:30:09;95280.22;;;4.07;nan
6224;BME280;3145;42.726;23.342;2023-03-03T06:32:37;95324.88;;;4.32;nan
6224;BME280;3145;42.726;23.342;2023-03-03T06:35:04;95322.94;;;4.34;nan
6224;BME280;3145;42.726;23.342;2023-03-03T06:37:31;95316.06;;;4.33;nan
6224;BME280;3145;42.726;23.342;2023-03-03T06:39:57;95325.53;;;4.44;nan
6224;BME280;3145;42.726;23.342;2023-03-03T06:42:24;95324.44;;;4.37;nan
6224;BME280;3145;42.726;23.342;2023-03-03T06:44:52;95327.19;;;4.35;nan
6224;BME280;3145;42.726;23.342;2023-03-03T06:47:19;95318.00;;;4.31;nan
6224;BME280;3145;42.726;23.342;2023-03-03T06:49:46;95323.63;;;4.36;nan
6224;BME280;3145;42.726;23.342;2023-03-03T06:52:18;95331.06;;;4.31;nan
6224;BME280;3145;42.726;23.342;2023-03-03T06:54:45;95329.44;;;4.30;nan
6224;BME280;3145;42.726;23.342;2023-03-03T06:57:18;95328.06;;;4.26;nan
6224;BME280;3145;42.726;23.342;2023-03-03T06:59:51;95300.81;;;4.19;nan
6224;BME280;3145;42.726;23.342;2023-03-03T07:02:20;95335.03;;;4.35;nan
6224;BME280;3145;42.726;23.342;2023-03-03T07:04:47;95333.13;;;4.37;nan
6224;BME280;3145;42.726;23.342;2023-03-03T07:07:17;95307.69;;;4.20;nan
6224;BME280;3145;42.726;23.342;2023-03-03T07:09:46;95227.78;;;3.72;nan
6224;BME280;3145;42.726;23.342;2023-03-03T07:12:15;95318.72;;;4.24;nan
6224;BME280;3145;42.726;23.342;2023-03-03T07:14:47;95331.88;;;4.41;nan
6224;BME280;3145;42.726;23.342;2023-03-03T07:17:18;95332.66;;;4.51;nan
6224;BME280;3145;42.726;23.342;2023-03-03T07:19:46;95334.78;;;4.38;nan
6224;BME280;3145;42.726;23.342;2023-03-03T07:22:16;95338.72;;;4.52;nan
6224;BME280;3145;42.726;23.342;2023-03-03T07:24:44;95318.81;;;4.41;nan
6224;BME280;3145;42.726;23.342;2023-03-03T07:27:16;95338.72;;;4.52;nan
6224;BME280;3145;42.726;23.342;2023-03-03T07:29:47;95335.00;;;4.54;nan
6224;BME280;3145;42.726;23.342;2023-03-03T07:32:27;95324.91;;;4.59;nan
6224;BME280;3145;42.726;23.342;2023-03-03T07:34:56;95328.34;;;4.69;nan
6224;BME280;3145;42.726;23.342;2023-03-03T07:37:29;95319.97;;;4.56;nan
6224;BME280;3145;42.726;23.342;2023-03-03T07:39:57;95317.19;;;4.67;nan
6224;BME280;3145;42.726;23.342;2023-03-03T07:42:25;95321.53;;;4.76;nan
6224;BME280;3145;42.726;23.342;2023-03-03T07:44:54;95332.31;;;4.73;nan
6224;BME280;3145;42.726;23.342;2023-03-03T07:47:23;95301.50;;;4.58;nan
6224;BME280;3145;42.726;23.342;2023-03-03T07:49:51;95310.81;;;4.70;nan
6224;BME280;3145;42.726;23.342;2023-03-03T07:52:29;95323.09;;;4.69;nan
6224;BME280;3145;42.726;23.342;2023-03-03T07:54:59;95326.22;;;4.82;nan
6224;BME280;3145;42.726;23.342;2023-03-03T07:57:29;95325.38;;;4.82;nan
6224;BME280;3145;42.726;23.342;2023-03-03T08:02:54;95319.63;;;4.78;nan
6224;BME280;3145;42.726;23.342;2023-03-03T08:05:30;95280.03;;;4.64;nan
6224;BME280;3145;42.726;23.342;2023-03-03T08:08:21;95275.94;;;4.52;nan
6224;BME280;3145;42.726;23.342;2023-03-03T08:10:54;95320.38;;;4.88;nan
6224;BME280;3145;42.726;23.342;2023-03-03T08:13:22;95292.97;;;4.65;nan
6224;BME280;3145;42.726;23.342;2023-03-03T08:15:51;95318.44;;;4.90;nan
6224;BME280;3145;42.726;23.342;2023-03-03T08:18:22;95319.53;;;4.97;nan
6224;BME280;3145;42.726;23.342;2023-03-03T08:21:00;95310.97;;;4.95;nan
6224;BME280;3145;42.726;23.342;2023-03-03T08:23:28;95318.44;;;4.90;nan
6224;BME280;3145;42.726;23.342;2023-03-03T08:25:55;95312.06;;;5.03;nan
6224;BME280;3145;42.726;23.342;2023-03-03T08:28:21;95311.69;;;4.97;nan
6224;BME280;3145;42.726;23.342;2023-03-03T08:30:49;95293.78;;;4.93;nan
6224;BME280;3145;42.726;23.342;2023-03-03T08:33:16;95302.94;;;5.07;nan
6224;BME280;3145;42.726;23.342;2023-03-03T08:35:43;95310.59;;;5.18;nan
6224;BME280;3145;42.726;23.342;2023-03-03T08:38:12;95290.31;;;4.92;nan
6224;BME280;3145;42.726;23.342;2023-03-03T08:40:41;95304.00;;;5.14;nan
6224;BME280;3145;42.726;23.342;2023-03-03T08:43:10;95307.28;;;5.16;nan
6224;BME280;3145;42.726;23.342;2023-03-03T08:45:41;95287.81;;;5.00;nan
6224;BME280;3145;42.726;23.342;2023-03-03T08:48:08;95306.22;;;5.08;nan
6224;BME280;3145;42.726;23.342;2023-03-03T08:50:35;95296.53;;;4.91;nan
6224;BME280;3145;42.726;23.342;2023-03-03T08:53:03;95288.69;;;4.91;nan
6224;BME280;3145;42.726;23.342;2023-03-03T08:55:29;95309.91;;;5.16;nan
6224;BME280;3145;42.726;23.342;2023-03-03T08:57:58;95309.75;;;5.17;nan
6224;BME280;3145;42.726;23.342;2023-03-03T09:00:25;95309.41;;;5.30;nan
6224;BME280;3145;42.726;23.342;2023-03-03T09:02:52;95289.94;;;5.15;nan
6224;BME280;3145;42.726;23.342;2023-03-03T09:05:20;95286.88;;;5.19;nan
6224;BME280;3145;42.726;23.342;2023-03-03T09:07:48;95311.06;;;5.31;nan
6224;BME280;3145;42.726;23.342;2023-03-03T09:10:18;95296.47;;;5.28;nan
6224;BME280;3145;42.726;23.342;2023-03-03T09:12:47;95302.38;;;5.48;nan
6224;BME280;3145;42.726;23.342;2023-03-03T09:15:19;95280.59;;;5.30;nan
6224;BME280;3145;42.726;23.342;2023-03-03T09:17:47;95308.38;;;5.58;nan
6224;BME280;3145;42.726;23.342;2023-03-03T09:20:30;95290.41;;;5.63;nan
6224;BME280;3145;42.726;23.342;2023-03-03T09:22:57;95218.41;;;5.32;nan
6224;BME280;3145;42.726;23.342;2023-03-03T09:25:31;95305.72;;;5.85;nan
6224;BME280;3145;42.726;23.342;2023-03-03T09:27:58;95306.50;;;5.85;nan
6224;BME280;3145;42.726;23.342;2023-03-03T09:30:35;95289.50;;;5.89;nan
6224;BME280;3145;42.726;23.342;2023-03-03T09:33:18;95254.69;;;5.62;nan
6224;BME280;3145;42.726;23.342;2023-03-03T09:35:50;95284.41;;;5.88;nan
6224;BME280;3145;42.726;23.342;2023-03-03T09:38:27;95271.69;;;5.93;nan
6224;BME280;3145;42.726;23.342;2023-03-03T09:41:10;95299.03;;;6.16;nan
6224;BME280;3145;42.726;23.342;2023-03-03T09:43:48;95301.72;;;6.24;nan
6224;BME280;3145;42.726;23.342;2023-03-03T09:46:28;95310.63;;;6.31;nan
6224;BME280;3145;42.726;23.342;2023-03-03T09:49:06;95313.56;;;6.28;nan
6224;BME280;3145;42.726;23.342;2023-03-03T09:51:54;95299.69;;;6.35;nan
6224;BME280;3145;42.726;23.342;2023-03-03T09:54:42;95290.28;;;6.25;nan
6224;BME280;3145;42.726;23.342;2023-03-03T09:57:15;95298.25;;;6.41;nan
6224;BME280;3145;42.726;23.342;2023-03-03T09:59:58;95294.06;;;6.56;nan
6224;BME280;3145;42.726;23.342;2023-03-03T10:02:39;95297.13;;;6.77;nan
6224;BME280;3145;42.726;23.342;2023-03-03T10:05:23;95301.63;;;6.59;nan
6224;BME280;3145;42.726;23.342;2023-03-03T10:08:02;95269.59;;;6.47;nan
6224;BME280;3145;42.726;23.342;2023-03-03T10:10:50;95277.03;;;6.60;nan
6224;BME280;3145;42.726;23.342;2023-03-03T10:13:40;95295.91;;;6.97;nan
6224;BME280;3145;42.726;23.342;2023-03-03T10:16:21;95292.28;;;6.98;nan
6224;BME280;3145;42.726;23.342;2023-03-03T10:18:59;95277.50;;;6.89;nan
6224;BME280;3145;42.726;23.342;2023-03-03T10:21:29;95294.81;;;7.15;nan
6224;BME280;3145;42.726;23.342;2023-03-03T10:24:08;95291.06;;;7.26;nan
6224;BME280;3145;42.726;23.342;2023-03-03T10:26:50;95290.44;;;7.32;nan
6224;BME280;3145;42.726;23.342;2023-03-03T10:29:29;95280.28;;;7.53;nan
6224;BME280;3145;42.726;23.342;2023-03-03T10:32:25;95266.47;;;7.59;nan
6224;BME280;3145;42.726;23.342;2023-03-03T10:35:07;95276.38;;;7.81;nan
6224;BME280;3145;42.726;23.342;2023-03-03T10:37:47;95257.81;;;7.74;nan
6224;BME280;3145;42.726;23.342;2023-03-03T10:40:21;95254.19;;;7.75;nan
6224;BME280;3145;42.726;23.342;2023-03-03T10:43:07;95238.22;;;7.61;nan
6224;BME280;3145;42.726;23.342;2023-03-03T10:45:57;95263.06;;;7.82;nan
6224;BME280;3145;42.726;23.342;2023-03-03T10:48:36;95259.28;;;7.93;nan
6224;BME280;3145;42.726;23.342;2023-03-03T10:51:18;95259.94;;;7.71;nan
6224;BME280;3145;42.726;23.342;2023-03-03T10:53:57;95260.59;;;7.65;nan
6224;BME280;3145;42.726;23.342;2023-03-03T10:56:33;95257.63;;;7.76;nan
6224;BME280;3145;42.726;23.342;2023-03-03T10:59:15;95255.66;;;7.62;nan
6224;BME280;3145;42.726;23.342;2023-03-03T11:01:54;95253.84;;;7.54;nan
6224;BME280;3145;42.726;23.342;2023-03-03T11:04:38;95239.88;;;7.62;nan
6224;BME280;3145;42.726;23.342;2023-03-03T11:07:13;95243.50;;;7.77;nan
6224;BME280;3145;42.726;23.342;2023-03-03T11:10:04;95210.63;;;7.73;nan
6224;BME280;3145;42.726;23.342;2023-03-03T11:12:45;95243.50;;;7.77;nan
6224;BME280;3145;42.726;23.342;2023-03-03T11:15:25;95229.19;;;7.79;nan
6224;BME280;3145;42.726;23.342;2023-03-03T11:18:20;95245.44;;;7.67;nan
6224;BME280;3145;42.726;23.342;2023-03-03T11:20:54;95118.97;;;7.14;nan
6224;BME280;3145;42.726;23.342;2023-03-03T11:23:51;95237.59;;;7.99;nan
6224;BME280;3145;42.726;23.342;2023-03-03T11:26:40;95228.38;;;8.03;nan
6224;BME280;3145;42.726;23.342;2023-03-03T11:29:26;95229.84;;;8.13;nan
6224;BME280;3145;42.726;23.342;2023-03-03T11:31:57;95214.19;;;8.20;nan
6224;BME280;3145;42.726;23.342;2023-03-03T11:34:41;95226.06;;;8.24;nan
6224;BME280;3145;42.726;23.342;2023-03-03T11:37:15;95230.63;;;8.30;nan
6224;BME280;3145;42.726;23.342;2023-03-03T11:39:46;95196.47;;;7.98;nan
6224;BME280;3145;42.726;23.342;2023-03-03T11:42:20;95227.34;;;8.36;nan
6224;BME280;3145;42.726;23.342;2023-03-03T11:44:54;95227.03;;;8.39;nan
6224;BME280;3145;42.726;23.342;2023-03-03T11:47:24;95216.31;;;8.40;nan
6224;BME280;3145;42.726;23.342;2023-03-03T11:49:56;95219.31;;;8.29;nan
6224;BME280;3145;42.726;23.342;2023-03-03T11:52:33;95214.53;;;8.33;nan
6224;BME280;3145;42.726;23.342;2023-03-03T11:55:09;95211.53;;;8.44;nan
6224;BME280;3145;42.726;23.342;2023-03-03T11:57:40;95189.16;;;8.40;nan
6224;BME280;3145;42.726;23.342;2023-03-03T12:00:19;95212.16;;;8.54;nan
6224;BME280;3145;42.726;23.342;2023-03-03T12:03:13;95218.56;;;8.51;nan
6224;BME280;3145;42.726;23.342;2023-03-03T12:05:47;95216.78;;;8.52;nan
6224;BME280;3145;42.726;23.342;2023-03-03T12:08:27;95189.50;;;8.37;nan
6224;BME280;3145;42.726;23.342;2023-03-03T12:11:04;95213.84;;;8.47;nan
6224;BME280;3145;42.726;23.342;2023-03-03T12:13:44;95204.50;;;8.36;nan
6224;BME280;3145;42.726;23.342;2023-03-03T12:16:23;95219.13;;;8.39;nan
6224;BME280;3145;42.726;23.342;2023-03-03T12:19:04;95215.34;;;8.33;nan
6224;BME280;3145;42.726;23.342;2023-03-03T12:21:43;95213.22;;;8.29;nan
6224;BME280;3145;42.726;23.342;2023-03-03T12:24:26;95196.13;;;8.09;nan
6224;BME280;3145;42.726;23.342;2023-03-03T12:27:07;95196.13;;;8.09;nan
6224;BME280;3145;42.726;23.342;2023-03-03T12:29:40;95213.06;;;8.22;nan
6224;BME280;3145;42.726;23.342;2023-03-03T12:32:20;95217.00;;;8.18;nan
6224;BME280;3145;42.726;23.342;2023-03-03T12:34:51;95174.78;;;7.96;nan
6224;BME280;3145;42.726;23.342;2023-03-03T12:37:31;95218.94;;;8.16;nan
6224;BME280;3145;42.726;23.342;2023-03-03T12:40:07;95221.16;;;7.81;nan
6224;BME280;3145;42.726;23.342;2023-03-03T12:42:45;95209.31;;;7.85;nan
6224;BME280;3145;42.726;23.342;2023-03-03T12:45:30;95230.50;;;7.99;nan
6224;BME280;3145;42.726;23.342;2023-03-03T12:48:07;95217.19;;;7.93;nan
6224;BME280;3145;42.726;23.342;2023-03-03T12:50:40;95222.13;;;7.96;nan
6224;BME280;3145;42.726;23.342;2023-03-03T12:53:24;95220.66;;;7.93;nan
6224;BME280;3145;42.726;23.342;2023-03-03T12:55:58;95226.09;;;7.84;nan
6224;BME280;3145;42.726;23.342;2023-03-03T12:58:36;95202.75;;;7.73;nan
6224;BME280;3145;42.726;23.342;2023-03-03T13:01:14;95167.91;;;7.47;nan
6224;BME280;3145;42.726;23.342;2023-03-03T13:03:54;95219.84;;;7.69;nan
6224;BME280;3145;42.726;23.342;2023-03-03T13:06:27;95192.56;;;7.46;nan
6224;BME280;3145;42.726;23.342;2023-03-03T13:09:11;95208.00;;;7.41;nan
6224;BME280;3145;42.726;23.342;2023-03-03T13:11:54;95208.97;;;7.24;nan
6224;BME280;3145;42.726;23.342;2023-03-03T13:14:33;95215.88;;;7.41;nan
6224;BME280;3145;42.726;23.342;2023-03-03T13:17:10;95219.81;;;7.37;nan
6224;BME280;3145;42.726;23.342;2023-03-03T13:19:44;95215.69;;;7.26;nan
6224;BME280;3145;42.726;23.342;2023-03-03T13:22:17;95187.94;;;7.08;nan
6224;BME280;3145;42.726;23.342;2023-03-03T13:24:54;95213.41;;;7.31;nan
6224;BME280;3145;42.726;23.342;2023-03-03T13:27:26;95216.50;;;7.35;nan
6224;BME280;3145;42.726;23.342;2023-03-03T13:30:00;95210.91;;;7.14;nan
6224;BME280;3145;42.726;23.342;2023-03-03T13:32:34;95205.66;;;7.14;nan
6224;BME280;3145;42.726;23.342;2023-03-03T13:35:07;95206.66;;;7.21;nan
6224;BME280;3145;42.726;23.342;2023-03-03T13:37:38;95178.91;;;7.18;nan
6224;BME280;3145;42.726;23.342;2023-03-03T13:40:15;95212.09;;;7.51;nan
6224;BME280;3145;42.726;23.342;2023-03-03T13:42:45;95191.75;;;7.61;nan
6224;BME280;3145;42.726;23.342;2023-03-03T13:45:18;95195.50;;;7.67;nan
6224;BME280;3145;42.726;23.342;2023-03-03T13:47:52;95202.41;;;7.76;nan
6224;BME280;3145;42.726;23.342;2023-03-03T13:50:28;95198.47;;;7.80;nan
6224;BME280;3145;42.726;23.342;2023-03-03T13:53:07;95180.06;;;7.88;nan
6224;BME280;3145;42.726;23.342;2023-03-03T13:55:41;95188.94;;;7.95;nan
6224;BME280;3145;42.726;23.342;2023-03-03T13:58:15;95196.47;;;7.90;nan
6224;BME280;3145;42.726;23.342;2023-03-03T14:00:54;95184.66;;;7.86;nan
6224;BME280;3145;42.726;23.342;2023-03-03T14:03:56;95178.75;;;7.76;nan
6224;BME280;3145;42.726;23.342;2023-03-03T14:06:26;95165.47;;;7.69;nan
6224;BME280;3145;42.726;23.342;2023-03-03T14:11:49;95200.78;;;7.75;nan
6224;BME280;3145;42.726;23.342;2023-03-03T14:14:32;95194.03;;;7.72;nan
6224;BME280;3145;42.726;23.342;2023-03-03T14:17:13;95166.25;;;7.62;nan
6224;BME280;3145;42.726;23.342;2023-03-03T14:19:43;95198.31;;;7.81;nan